Time;durP1;ratioP1;P1;durP2;ratioP2;P2;SDS_P1;SDS_P2;PMS_P1;PMS_P2;Temp;Humidity;BMP_temperature;BMP_pressure;BME280_temperature;BME280_humidity;BME280_pressure;Samples;Min_cycle;Max_cycle;Signal;HPM_P1;HPM_P2
2021/12/27 00:01:45;;;;;;;;;;;;;;;0.36;100.00;100295.63;4997195;28;19928;-78
2021/12/27 00:04:10;;;;;;;;;;;;;;;0.33;100.00;100296.53;4998084;28;19937;-78
2021/12/27 00:06:36;;;;;;;;;;;;;;;0.25;100.00;100299.22;5010666;28;19980;-81
2021/12/27 00:09:01;;;;;;;;;;;;;;;0.31;100.00;100298.28;5013042;28;20306;-79
2021/12/27 00:11:27;;;;;;;;;;;;;;;0.25;100.00;100291.47;5015212;28;20385;-80
2021/12/27 00:13:52;;;;;;;;;;;;;;;0.35;100.00;100284.44;5008308;28;19917;-79
2021/12/27 00:16:17;;;;;;;;;;;;;;;0.31;100.00;100277.63;4993797;28;19922;-79
2021/12/27 00:18:42;;;;;;;;;;;;;;;0.34;100.00;100279.28;5009481;28;20083;-78
2021/12/27 00:21:08;;;;;;;;;;;;;;;0.50;100.00;100274.75;5008088;28;19961;-79
2021/12/27 00:23:34;;;;;;;;;;;;;;;0.36;100.00;100280.13;5039132;28;20371;-79
2021/12/27 00:25:59;;;;;;;;;;;;;;;0.25;100.00;100277.69;5010496;28;20293;-77
2021/12/27 00:28:24;;;;;;;;;;;;;;;0.35;100.00;100274.09;5006143;28;19926;-79
2021/12/27 00:30:50;;;;;;;;;;;;;;;0.40;100.00;100274.03;5010159;28;19964;-75
2021/12/27 00:33:15;;;;;;;;;;;;;;;0.33;100.00;100272.41;5009468;28;20306;-74
2021/12/27 00:35:41;;;;;;;;;;;;;;;0.29;100.00;100262.09;5000116;28;19932;-75
2021/12/27 00:38:07;;;;;;;;;;;;;;;0.22;100.00;100265.66;5002150;28;20441;-74
2021/12/27 00:40:32;;;;;;;;;;;;;;;0.36;100.00;100262.03;5013633;28;19933;-74
2021/12/27 00:42:57;;;;;;;;;;;;;;;0.28;100.00;100262.16;5006158;28;20013;-74
2021/12/27 00:45:23;;;;;;;;;;;;;;;0.33;100.00;100262.06;5011027;28;19917;-74
2021/12/27 00:47:49;;;;;;;;;;;;;;;0.39;100.00;100252.50;5000999;28;19922;-74
2021/12/27 00:50:14;;;;;;;;;;;;;;;0.39;100.00;100252.50;4996186;28;20012;-73
2021/12/27 00:52:40;;;;;;;;;;;;;;;0.41;100.00;100249.91;4993982;28;19946;-72
2021/12/27 00:55:06;;;;;;;;;;;;;;;0.50;100.00;100248.91;5006084;28;19984;-72
2021/12/27 00:57:31;;;;;;;;;;;;;;;0.38;100.00;100243.06;5009115;28;19973;-73
2021/12/27 00:59:57;;;;;;;;;;;;;;;0.39;100.00;100247.34;4998252;28;19922;-74
2021/12/27 01:02:22;;;;;;;;;;;;;;;0.51;100.00;100242.88;5001346;28;20377;-71
2021/12/27 01:04:47;;;;;;;;;;;;;;;0.43;100.00;100237.81;5007916;28;19976;-71
2021/12/27 01:07:13;;;;;;;;;;;;;;;0.41;100.00;100239.56;5002094;28;19961;-72
2021/12/27 01:17:45;;;;;;;;;;;;;;;0.55;100.00;100223.88;4997443;28;19922;-72
2021/12/27 01:20:12;;;;;;;;;;;;;;;0.48;100.00;100223.09;4999279;28;19918;-72
2021/12/27 01:22:38;;;;;;;;;;;;;;;0.51;100.00;100220.44;5035552;28;20417;-72
2021/12/27 01:25:04;;;;;;;;;;;;;;;0.49;100.00;100226.53;5038510;28;19979;-72
2021/12/27 01:27:29;;;;;;;;;;;;;;;0.51;100.00;100217.88;5004972;28;19949;-73
2021/12/27 01:29:54;;;;;;;;;;;;;;;0.46;100.00;100207.59;5006977;28;19925;-71
2021/12/27 01:32:20;;;;;;;;;;;;;;;0.50;100.00;100200.66;5001427;28;20027;-71
2021/12/27 01:34:46;;;;;;;;;;;;;;;0.52;100.00;100206.66;5006556;28;20009;-73
2021/12/27 01:37:12;;;;;;;;;;;;;;;0.50;100.00;100202.41;5036152;28;20058;-74
2021/12/27 01:39:37;;;;;;;;;;;;;;;0.54;100.00;100201.47;5001573;28;19922;-74
2021/12/27 01:42:03;;;;;;;;;;;;;;;0.52;100.00;100200.66;4996437;28;19926;-73
2021/12/27 01:44:28;;;;;;;;;;;;;;;0.49;100.00;100195.50;5000904;28;20007;-73
2021/12/27 01:46:53;;;;;;;;;;;;;;;0.59;100.00;100210.00;4997303;28;19995;-75
2021/12/27 01:49:19;;;;;;;;;;;;;;;0.63;100.00;100214.25;4996025;28;19924;-73
2021/12/27 01:51:44;;;;;;;;;;;;;;;0.66;100.00;100203.00;4999827;28;19950;-73
2021/12/27 01:54:10;;;;;;;;;;;;;;;0.60;100.00;100202.25;5005031;28;19962;-74
2021/12/27 01:56:36;;;;;;;;;;;;;;;0.65;100.00;100198.72;5000574;28;20002;-73
2021/12/27 01:59:01;;;;;;;;;;;;;;;0.63;100.00;100197.88;5006131;28;19959;-73
2021/12/27 02:01:26;;;;;;;;;;;;;;;0.65;100.00;100204.75;5003491;28;19959;-72
2021/12/27 02:03:53;;;;;;;;;;;;;;;0.58;100.00;100198.81;4999947;28;19979;-72
2021/12/27 02:06:19;;;;;;;;;;;;;;;0.68;100.00;100199.50;5001911;28;19946;-72
2021/12/27 02:08:45;;;;;;;;;;;;;;;0.70;100.00;100205.50;4997206;28;20498;-72
2021/12/27 02:11:11;;;;;;;;;;;;;;;0.72;100.00;100205.47;4988000;28;19980;-72
2021/12/27 02:16:20;;;;;;;;;;;;;;;0.78;100.00;100200.22;4982459;28;19955;-71
2021/12/27 02:18:46;;;;;;;;;;;;;;;0.70;100.00;100194.31;4982422;28;20010;-71
2021/12/27 02:21:12;;;;;;;;;;;;;;;0.84;100.00;100194.09;4980713;28;20410;-72
2021/12/27 02:23:39;;;;;;;;;;;;;;;0.86;100.00;100200.94;4978487;28;19936;-72
2021/12/27 02:26:05;;;;;;;;;;;;;;;0.87;100.00;100194.03;4979206;28;20277;-72
2021/12/27 02:28:30;;;;;;;;;;;;;;;0.72;100.00;100192.53;4984438;28;19952;-71
2021/12/27 02:30:55;;;;;;;;;;;;;;;0.72;100.00;100188.25;4977912;28;20357;-73
2021/12/27 02:33:21;;;;;;;;;;;;;;;0.84;100.00;100183.75;4978310;28;20312;-71
2021/12/27 02:35:47;;;;;;;;;;;;;;;0.77;100.00;100175.25;4982517;28;20054;-72
2021/12/27 02:38:14;;;;;;;;;;;;;;;0.82;100.00;100177.75;4984150;28;19960;-71
2021/12/27 02:40:40;;;;;;;;;;;;;;;0.79;100.00;100182.97;4985202;28;19948;-73
2021/12/27 02:43:21;;;;;;;;;;;;;;;0.79;100.00;100175.19;4979274;28;19921;-73
2021/12/27 02:45:49;;;;;;;;;;;;;;;0.87;100.00;100161.25;4980462;28;19947;-73
2021/12/27 02:48:16;;;;;;;;;;;;;;;0.80;100.00;100157.09;4979675;28;19963;-73
2021/12/27 02:50:42;;;;;;;;;;;;;;;0.87;100.00;100155.25;4987134;28;19954;-73
2021/12/27 02:53:08;;;;;;;;;;;;;;;0.86;100.00;100156.97;4983037;28;20002;-73
2021/12/27 02:55:33;;;;;;;;;;;;;;;0.87;100.00;100155.25;4981984;28;20527;-73
2021/12/27 02:57:59;;;;;;;;;;;;;;;0.85;100.00;100155.25;4987022;28;20041;-73
2021/12/27 03:00:39;;;;;;;;;;;;;;;0.88;100.00;100152.63;4983965;28;20373;-73
2021/12/27 03:03:05;;;;;;;;;;;;;;;0.85;100.00;100154.44;4997992;28;20253;-73
2021/12/27 03:05:31;;;;;;;;;;;;;;;0.94;100.00;100162.00;4997183;28;19950;-73
2021/12/27 03:07:56;;;;;;;;;;;;;;;0.95;100.00;100162.84;4999781;28;20689;-73
2021/12/27 03:10:24;;;;;;;;;;;;;;;0.96;100.00;100160.25;4995559;28;19951;-72
2021/12/27 03:12:50;;;;;;;;;;;;;;;1.07;100.00;100166.09;5003963;28;19954;-72
2021/12/27 03:15:16;;;;;;;;;;;;;;;1.14;100.00;100164.25;5001308;28;19960;-73
2021/12/27 03:17:42;;;;;;;;;;;;;;;1.25;100.00;100163.19;5004188;28;19952;-72
2021/12/27 03:20:09;;;;;;;;;;;;;;;1.19;100.00;100156.38;4999206;28;19921;-72
2021/12/27 03:22:34;;;;;;;;;;;;;;;1.13;100.00;100161.66;5000162;28;20322;-71
2021/12/27 03:25:00;;;;;;;;;;;;;;;1.13;100.00;100159.94;5000459;28;19958;-72
2021/12/27 03:27:25;;;;;;;;;;;;;;;1.15;100.00;100159.91;4998899;28;20315;-72
2021/12/27 03:29:51;;;;;;;;;;;;;;;1.20;100.00;100152.91;4999030;28;20373;-72
2021/12/27 03:32:18;;;;;;;;;;;;;;;1.19;100.00;100148.63;5004754;28;19975;-72
2021/12/27 03:34:53;;;;;;;;;;;;;;;1.30;100.00;100148.41;4998680;28;19969;-72
2021/12/27 03:37:18;;;;;;;;;;;;;;;1.31;100.00;100150.97;4983867;28;19933;-72
2021/12/27 03:39:44;;;;;;;;;;;;;;;1.32;100.00;100151.81;4982128;28;19958;-71
2021/12/27 03:42:09;;;;;;;;;;;;;;;1.26;100.00;100145.03;4994747;28;20355;-72
2021/12/27 03:44:34;;;;;;;;;;;;;;;1.21;100.00;100139.09;5001396;28;19953;-72
2021/12/27 03:47:00;;;;;;;;;;;;;;;1.22;100.00;100143.38;5001496;28;20391;-72
2021/12/27 03:49:25;;;;;;;;;;;;;;;1.23;100.00;100137.31;4999152;28;19959;-70
2021/12/27 03:51:50;;;;;;;;;;;;;;;1.26;100.00;100137.25;5001937;28;19957;-69
2021/12/27 03:54:15;;;;;;;;;;;;;;;1.32;100.00;100131.97;4999871;28;20043;-71
2021/12/27 03:56:41;;;;;;;;;;;;;;;1.31;100.00;100132.00;5003699;28;20338;-73
2021/12/27 04:01:47;;;;;;;;;;;;;;;1.35;100.00;100129.31;4995996;28;20330;-73
2021/12/27 04:04:12;;;;;;;;;;;;;;;1.37;100.00;100124.13;5002148;28;19956;-73
2021/12/27 04:06:37;;;;;;;;;;;;;;;1.41;100.00;100127.50;4992290;28;20421;-74
2021/12/27 04:09:03;;;;;;;;;;;;;;;1.49;100.00;100116.06;5002825;28;19990;-73
2021/12/27 04:11:28;;;;;;;;;;;;;;;1.41;100.00;100115.41;5000496;28;19953;-71
2021/12/27 04:13:55;;;;;;;;;;;;;;;1.38;100.00;100111.13;5002914;28;19956;-72
2021/12/27 04:16:20;;;;;;;;;;;;;;;1.39;100.00;100115.44;4994642;28;20473;-72
2021/12/27 04:18:46;;;;;;;;;;;;;;;1.41;100.00;100114.56;5005796;28;20048;-71
2021/12/27 04:21:11;;;;;;;;;;;;;;;1.42;100.00;100106.75;4993945;28;19998;-72
2021/12/27 04:23:36;;;;;;;;;;;;;;;1.43;100.00;100105.88;4998553;28;19974;-72
2021/12/27 04:26:02;;;;;;;;;;;;;;;1.57;100.00;100105.56;5001044;28;19954;-74
2021/12/27 04:28:27;;;;;;;;;;;;;;;1.50;100.00;100098.81;5008021;28;19953;-73
2021/12/27 04:30:52;;;;;;;;;;;;;;;1.48;100.00;100093.69;4994332;28;19955;-72
2021/12/27 04:33:18;;;;;;;;;;;;;;;1.46;100.00;100098.03;4991701;28;19963;-73
2021/12/27 04:35:43;;;;;;;;;;;;;;;1.50;100.00;100088.47;4998253;28;19960;-71
2021/12/27 04:38:08;;;;;;;;;;;;;;;1.48;100.00;100092.81;5002703;28;20021;-72
2021/12/27 04:40:35;;;;;;;;;;;;;;;1.52;100.00;100082.38;5007383;28;19948;-72
2021/12/27 04:43:04;;;;;;;;;;;;;;;1.46;100.00;100081.66;5031324;28;19955;-73
2021/12/27 04:45:30;;;;;;;;;;;;;;;1.50;100.00;100083.28;4994959;28;20014;-71
2021/12/27 04:47:55;;;;;;;;;;;;;;;1.53;100.00;100088.41;5001325;28;20430;-71
2021/12/27 04:50:23;;;;;;;;;;;;;;;1.57;100.00;100079.69;5005830;28;19964;-73
2021/12/27 04:52:50;;;;;;;;;;;;;;;1.55;100.00;100078.84;5000714;28;20006;-72
2021/12/27 04:55:16;;;;;;;;;;;;;;;1.54;100.00;100080.59;4997926;28;19959;-72
2021/12/27 04:57:41;;;;;;;;;;;;;;;1.53;100.00;100078.91;5005316;28;19953;-71
2021/12/27 05:00:07;;;;;;;;;;;;;;;1.54;100.00;100078.00;5034021;28;19961;-73
2021/12/27 05:02:32;;;;;;;;;;;;;;;1.57;100.00;100079.69;5002142;28;19954;-72
2021/12/27 05:04:58;;;;;;;;;;;;;;;1.54;100.00;100082.34;5008930;28;19981;-72
2021/12/27 05:07:23;;;;;;;;;;;;;;;1.56;100.00;100077.97;4997780;28;20583;-72
2021/12/27 05:09:48;;;;;;;;;;;;;;;1.54;100.00;100077.19;5003773;28;19952;-73
2021/12/27 05:12:13;;;;;;;;;;;;;;;1.56;100.00;100075.38;5008828;28;19966;-73
2021/12/27 05:14:39;;;;;;;;;;;;;;;1.60;100.00;100077.03;5004787;28;20413;-72
2021/12/27 05:17:04;;;;;;;;;;;;;;;1.56;100.00;100075.38;5004376;28;19960;-73
2021/12/27 05:19:29;;;;;;;;;;;;;;;1.60;100.00;100068.41;5003612;28;19982;-72
2021/12/27 05:21:55;;;;;;;;;;;;;;;1.66;100.00;100058.75;5003403;28;19967;-72
2021/12/27 05:24:22;;;;;;;;;;;;;;;1.63;100.00;100056.25;4995417;28;20406;-71
2021/12/27 05:26:47;;;;;;;;;;;;;;;1.73;100.00;100054.28;5003558;28;20008;-71
2021/12/27 05:29:12;;;;;;;;;;;;;;;1.67;100.00;100049.25;5000734;28;20044;-73
2021/12/27 05:31:38;;;;;;;;;;;;;;;1.68;100.00;100043.19;4998279;28;20062;-72
2021/12/27 05:34:03;;;;;;;;;;;;;;;1.77;100.00;100039.53;5004590;28;20575;-73
2021/12/27 05:36:29;;;;;;;;;;;;;;;1.77;100.00;100029.16;5002298;28;19930;-73
2021/12/27 05:38:54;;;;;;;;;;;;;;;1.76;100.00;100022.31;5003587;28;19958;-73
2021/12/27 05:41:19;;;;;;;;;;;;;;;1.84;100.00;100012.63;4998366;28;19995;-73
2021/12/27 05:43:44;;;;;;;;;;;;;;;1.81;100.00;100020.44;4995635;28;20005;-73
2021/12/27 05:46:10;;;;;;;;;;;;;;;1.66;100.00;100012.16;5011001;28;19964;-72
2021/12/27 05:48:35;;;;;;;;;;;;;;;1.70;100.00;100015.53;5021225;28;19956;-71
2021/12/27 05:51:00;;;;;;;;;;;;;;;1.60;100.00;100012.31;5016875;28;19956;-72
2021/12/27 05:53:26;;;;;;;;;;;;;;;1.62;100.00;100001.91;5015835;28;19956;-72
2021/12/27 05:55:51;;;;;;;;;;;;;;;1.66;100.00;100013.91;4990316;28;20398;-70
2021/12/27 05:58:16;;;;;;;;;;;;;;;1.72;100.00;100011.16;5012008;28;20010;-72
2021/12/27 06:00:42;;;;;;;;;;;;;;;1.68;100.00;100025.06;5028710;28;19961;-70
2021/12/27 06:03:07;;;;;;;;;;;;;;;1.68;100.00;100023.31;5002648;28;19963;-73
2021/12/27 06:05:32;;;;;;;;;;;;;;;1.72;100.00;100042.22;5009813;28;19972;-72
2021/12/27 06:07:58;;;;;;;;;;;;;;;1.85;100.00;100042.81;4996762;28;20007;-74
2021/12/27 06:10:24;;;;;;;;;;;;;;;1.87;100.00;100037.59;4997412;28;19954;-72
2021/12/27 06:12:49;;;;;;;;;;;;;;;1.91;100.00;100026.28;5002870;28;20407;-72
2021/12/27 06:15:15;;;;;;;;;;;;;;;1.91;100.00;100034.88;4994606;28;20495;-72
2021/12/27 06:17:42;;;;;;;;;;;;;;;1.99;100.00;100032.09;4999761;28;19918;-71
2021/12/27 06:20:08;;;;;;;;;;;;;;;1.97;100.00;100031.28;4999411;28;19933;-73
2021/12/27 06:22:33;;;;;;;;;;;;;;;2.06;100.00;100032.81;5001036;28;20350;-71
2021/12/27 06:25:03;;;;;;;;;;;;;;;2.15;100.00;100030.81;5002990;28;19925;-71
2021/12/27 06:27:29;;;;;;;;;;;;;;;2.10;100.00;100039.59;5002439;28;19925;-71
2021/12/27 06:29:54;;;;;;;;;;;;;;;2.06;100.00;100022.44;4996753;28;19956;-72
2021/12/27 06:32:19;;;;;;;;;;;;;;;2.14;100.00;100023.97;4983348;28;20389;-72
2021/12/27 06:34:45;;;;;;;;;;;;;;;2.11;100.00;100023.16;5001345;28;19932;-71
2021/12/27 06:37:10;;;;;;;;;;;;;;;2.15;100.00;100027.41;5001838;28;19965;-72
2021/12/27 06:39:36;;;;;;;;;;;;;;;2.14;100.00;100028.28;5002918;28;20656;-72
2021/12/27 06:42:01;;;;;;;;;;;;;;;2.17;100.00;100026.47;5027355;28;20335;-71
2021/12/27 06:44:27;;;;;;;;;;;;;;;2.12;100.00;100030.06;5013799;28;19945;-72
2021/12/27 06:46:56;;;;;;;;;;;;;;;2.13;100.00;100032.63;5010546;28;19922;-72
2021/12/27 06:49:21;;;;;;;;;;;;;;;2.18;100.00;100027.31;5001739;28;19959;-72
2021/12/27 06:51:46;;;;;;;;;;;;;;;2.20;100.00;100027.28;5009423;28;19990;-73
2021/12/27 06:54:12;;;;;;;;;;;;;;;2.19;100.00;100025.56;4998144;28;20636;-72
2021/12/27 06:56:37;;;;;;;;;;;;;;;2.19;100.00;100031.63;4997091;28;19959;-71
2021/12/27 06:59:02;;;;;;;;;;;;;;;2.24;100.00;100031.50;5006133;28;20621;-71
2021/12/27 07:01:28;;;;;;;;;;;;;;;2.27;100.00;100027.09;5002875;28;19962;-72
2021/12/27 07:03:53;;;;;;;;;;;;;;;2.27;100.00;100028.81;5009069;28;19960;-72
2021/12/27 07:06:19;;;;;;;;;;;;;;;2.31;100.00;100030.44;5000484;28;20385;-72
2021/12/27 07:08:47;;;;;;;;;;;;;;;2.37;100.00;100024.25;4999857;28;20480;-71
2021/12/27 07:11:12;;;;;;;;;;;;;;;2.44;100.00;100025.78;5000940;28;19952;-71
2021/12/27 07:13:37;;;;;;;;;;;;;;;2.43;100.00;100021.47;4997713;28;20017;-72
2021/12/27 07:16:03;;;;;;;;;;;;;;;2.41;100.00;100025.88;5002091;28;20057;-73
2021/12/27 07:18:28;;;;;;;;;;;;;;;2.41;100.00;100021.53;5004962;28;19957;-73
2021/12/27 07:20:54;;;;;;;;;;;;;;;2.45;100.00;100027.50;5032372;28;20078;-73
2021/12/27 07:23:19;;;;;;;;;;;;;;;2.46;100.00;100032.66;5001412;28;20044;-72
2021/12/27 07:25:44;;;;;;;;;;;;;;;2.49;100.00;100029.13;5009169;28;19953;-72
2021/12/27 07:28:09;;;;;;;;;;;;;;;2.51;100.00;100029.06;4996780;28;19967;-72
2021/12/27 07:30:35;;;;;;;;;;;;;;;2.68;100.00;100034.66;5007228;28;19948;-72
2021/12/27 07:33:00;;;;;;;;;;;;;;;2.62;100.00;100040.00;4993356;28;20037;-74
2021/12/27 07:35:25;;;;;;;;;;;;;;;2.60;100.00;100034.00;5003504;28;20058;-72
2021/12/27 07:37:51;;;;;;;;;;;;;;;2.55;100.00;100036.72;4991341;28;20335;-73
2021/12/27 07:40:16;;;;;;;;;;;;;;;2.67;100.00;100032.09;4999921;28;20341;-72
2021/12/27 07:42:42;;;;;;;;;;;;;;;2.67;100.00;100037.28;4999643;28;20086;-72
2021/12/27 07:45:07;;;;;;;;;;;;;;;2.67;100.00;100032.09;5005908;28;19965;-72
2021/12/27 07:47:33;;;;;;;;;;;;;;;2.66;100.00;100031.25;5003935;28;19979;-72
2021/12/27 07:49:58;;;;;;;;;;;;;;;2.91;100.00;100026.22;4999148;28;19925;-71
2021/12/27 07:52:23;;;;;;;;;;;;;;;2.86;100.00;100024.66;4995861;28;20002;-71
2021/12/27 07:54:49;;;;;;;;;;;;;;;2.93;100.00;100026.19;5000244;28;19994;-75
2021/12/27 07:57:14;;;;;;;;;;;;;;;2.97;100.00;100034.75;5010290;28;19959;-73
2021/12/27 07:59:39;;;;;;;;;;;;;;;3.00;100.00;100022.53;5006037;28;19917;-72
2021/12/27 08:02:05;;;;;;;;;;;;;;;3.02;100.00;100022.47;5001868;28;19917;-72
2021/12/27 08:04:30;;;;;;;;;;;;;;;3.04;100.00;100015.50;4998007;28;19951;-74
2021/12/27 08:06:55;;;;;;;;;;;;;;;2.95;100.00;100016.63;5000478;28;20784;-72
2021/12/27 08:09:24;;;;;;;;;;;;;;;2.99;100.00;100020.84;5000396;28;19960;-72
2021/12/27 08:11:49;;;;;;;;;;;;;;;3.05;100.00;100020.63;5006056;28;20457;-72
2021/12/27 08:14:14;;;;;;;;;;;;;;;3.01;100.00;100020.78;4998163;28;19956;-73
2021/12/27 08:16:40;;;;;;;;;;;;;;;3.07;100.00;100020.63;5033092;28;19956;-72
2021/12/27 08:19:05;;;;;;;;;;;;;;;3.23;100.00;100021.84;5005025;28;19991;-73
2021/12/27 08:21:31;;;;;;;;;;;;;;;3.32;100.00;100020.72;4997328;28;19968;-72
2021/12/27 08:23:56;;;;;;;;;;;;;;;3.27;100.00;100019.16;5004594;28;20054;-72
2021/12/27 08:26:22;;;;;;;;;;;;;;;3.21;100.00;100018.44;5008213;28;20046;-71
2021/12/27 08:28:48;;;;;;;;;;;;;;;3.25;100.00;100019.22;5010095;28;20371;-72
2021/12/27 08:31:14;;;;;;;;;;;;;;;3.30;100.00;100016.50;5007733;28;19925;-72
2021/12/27 08:33:39;;;;;;;;;;;;;;;3.37;100.00;100018.00;5008282;28;19957;-76
2021/12/27 08:36:05;;;;;;;;;;;;;;;3.29;100.00;100017.38;5032473;28;19925;-76
2021/12/27 08:38:30;;;;;;;;;;;;;;;3.31;100.00;100018.19;5003534;28;19922;-77
2021/12/27 08:40:56;;;;;;;;;;;;;;;3.42;100.00;100021.28;5008803;28;20028;-76
2021/12/27 08:43:21;;;;;;;;;;;;;;;3.41;100.00;100019.63;5007197;28;19965;-76
2021/12/27 08:45:46;;;;;;;;;;;;;;;3.38;100.00;100025.72;5002359;28;20272;-77
2021/12/27 08:48:12;;;;;;;;;;;;;;;3.40;100.00;100018.75;5005360;28;19921;-76
2021/12/27 08:50:37;;;;;;;;;;;;;;;3.32;100.00;100012.06;5006249;28;20388;-77
2021/12/27 08:53:05;;;;;;;;;;;;;;;3.53;100.00;100006.22;5006648;28;19944;-76
2021/12/27 08:55:31;;;;;;;;;;;;;;;3.50;100.00;100001.16;5006643;28;19929;-77
2021/12/27 08:57:56;;;;;;;;;;;;;;;3.46;100.00;99991.75;5038654;28;19921;-77
2021/12/27 09:00:22;;;;;;;;;;;;;;;3.41;100.00;99993.66;5007930;28;19921;-77
2021/12/27 09:02:47;;;;;;;;;;;;;;;3.45;100.00;99995.22;5009167;28;19971;-77
2021/12/27 09:05:12;;;;;;;;;;;;;;;3.47;100.00;99983.06;4998078;28;19995;-78
2021/12/27 09:07:38;;;;;;;;;;;;;;;3.47;100.00;99983.06;5005217;28;20043;-73
2021/12/27 09:10:04;;;;;;;;;;;;;;;3.48;100.00;99986.50;5000453;28;19959;-72
2021/12/27 09:12:29;;;;;;;;;;;;;;;3.45;100.00;99989.22;5007356;28;20008;-72
2021/12/27 09:14:54;;;;;;;;;;;;;;;3.25;100.00;99991.50;5002591;28;19972;-71
2021/12/27 09:17:20;;;;;;;;;;;;;;;3.31;100.00;99994.84;5007417;28;19929;-71
2021/12/27 09:19:45;;;;;;;;;;;;;;;3.37;100.00;99995.47;5005290;28;19997;-71
2021/12/27 09:22:11;;;;;;;;;;;;;;;3.41;100.00;99991.06;5012648;28;19949;-71
2021/12/27 09:24:36;;;;;;;;;;;;;;;3.48;100.00;99997.75;5008115;28;19987;-71
2021/12/27 09:27:01;;;;;;;;;;;;;;;3.56;100.00;99987.13;5013542;28;20299;-72
2021/12/27 09:29:27;;;;;;;;;;;;;;;3.70;100.00;99990.09;5010124;28;19999;-72
2021/12/27 09:31:52;;;;;;;;;;;;;;;3.65;100.00;99986.81;5035637;28;20345;-72
2021/12/27 09:34:18;;;;;;;;;;;;;;;3.55;100.00;99982.81;5010207;28;20140;-72
2021/12/27 09:36:43;;;;;;;;;;;;;;;3.59;100.00;99981.81;5019234;28;20553;-72
2021/12/27 09:39:09;;;;;;;;;;;;;;;3.70;100.00;99984.06;5010493;28;19921;-72
2021/12/27 09:41:34;;;;;;;;;;;;;;;3.65;100.00;99970.38;4998712;28;19918;-75
2021/12/27 09:43:59;;;;;;;;;;;;;;;3.75;100.00;99971.78;4996779;28;19918;-72
2021/12/27 09:46:25;;;;;;;;;;;;;;;3.82;100.00;99965.50;5010356;28;19968;-72
2021/12/27 09:48:51;;;;;;;;;;;;;;;3.79;100.00;99965.59;4999945;28;19918;-72
2021/12/27 09:51:17;;;;;;;;;;;;;;;3.77;100.00;99959.59;4999291;28;19922;-73
2021/12/27 09:53:42;;;;;;;;;;;;;;;3.73;100.00;99958.00;4997090;28;19924;-73
2021/12/27 09:56:08;;;;;;;;;;;;;;;3.85;100.00;99952.41;5008563;28;20503;-71
2021/12/27 09:58:34;;;;;;;;;;;;;;;3.91;100.00;99961.75;5006405;28;19928;-72
2021/12/27 10:01:02;;;;;;;;;;;;;;;3.95;100.00;99968.53;4999856;28;20465;-71
2021/12/27 10:03:28;;;;;;;;;;;;;;;3.90;100.00;99966.97;4999794;28;20145;-72
2021/12/27 10:05:53;;;;;;;;;;;;;;;4.06;100.00;99970.78;5002538;28;19918;-71
2021/12/27 10:08:18;;;;;;;;;;;;;;;4.03;100.00;99976.91;4992074;28;20426;-72
2021/12/27 10:10:45;;;;;;;;;;;;;;;4.01;100.00;99970.06;5000184;28;19949;-71
2021/12/27 10:13:11;;;;;;;;;;;;;;;4.10;100.00;99968.91;5002287;28;20004;-72
2021/12/27 10:15:38;;;;;;;;;;;;;;;4.17;100.00;99960.84;4998344;28;20210;-72
2021/12/27 10:18:18;;;;;;;;;;;;;;;4.28;100.00;99963.06;4999421;28;19975;-72
2021/12/27 10:20:45;;;;;;;;;;;;;;;4.38;100.00;99953.22;4996237;28;19963;-73
2021/12/27 10:23:12;;;;;;;;;;;;;;;4.46;100.00;99958.13;4994657;28;19953;-72
2021/12/27 10:25:38;;;;;;;;;;;;;;;4.36;100.00;99959.34;4996397;28;19918;-72
2021/12/27 10:28:03;;;;;;;;;;;;;;;4.30;100.00;99947.44;4999406;28;19925;-73
2021/12/27 10:30:30;;;;;;;;;;;;;;;4.33;100.00;99942.97;5005179;28;19922;-73
2021/12/27 10:33:13;;;;;;;;;;;;;;;4.43;100.00;99945.25;5002303;28;20020;-72
2021/12/27 10:35:53;;;;;;;;;;;;;;;4.44;100.00;99949.53;4996508;28;19932;-71
2021/12/27 10:41:03;;;;;;;;;;;;;;;4.60;100.00;99935.06;5014994;28;19948;-72
2021/12/27 10:43:43;;;;;;;;;;;;;;;4.68;100.00;99926.97;5003978;28;19928;-73
2021/12/27 10:46:10;;;;;;;;;;;;;;;4.67;100.00;99920.06;5003795;28;19926;-73
2021/12/27 10:48:37;;;;;;;;;;;;;;;4.51;100.00;99906.78;5000025;28;20351;-72
2021/12/27 10:51:03;;;;;;;;;;;;;;;4.77;100.00;99905.81;5008001;28;19984;-72
2021/12/27 10:53:41;;;;;;;;;;;;;;;4.59;100.00;99896.09;5004837;28;20168;-73
2021/12/27 10:56:06;;;;;;;;;;;;;;;4.80;100.00;99904.84;5006089;28;19995;-73
2021/12/27 10:58:37;;;;;;;;;;;;;;;4.93;100.00;99900.03;5001574;28;19985;-73
2021/12/27 11:01:19;;;;;;;;;;;;;;;4.95;100.00;99893.84;4995980;28;19917;-71
2021/12/27 11:03:46;;;;;;;;;;;;;;;4.96;100.00;99899.91;5009000;28;20310;-71
2021/12/27 11:06:13;;;;;;;;;;;;;;;4.89;100.00;99906.25;5031455;28;19968;-74
2021/12/27 11:08:41;;;;;;;;;;;;;;;4.79;100.00;99901.41;5002801;28;20008;-74
2021/12/27 11:11:08;;;;;;;;;;;;;;;4.97;100.00;99906.78;4990201;28;20355;-74
2021/12/27 11:13:33;;;;;;;;;;;;;;;4.98;100.00;99903.28;5026190;28;19953;-73
2021/12/27 11:15:58;;;;;;;;;;;;;;;5.05;100.00;99907.38;5010978;28;20337;-74
2021/12/27 11:18:24;;;;;;;;;;;;;;;5.17;100.00;99905.19;5010658;28;19928;-74
2021/12/27 11:21:05;;;;;;;;;;;;;;;5.07;100.00;99900.31;5034175;28;19929;-74
2021/12/27 11:23:31;;;;;;;;;;;;;;;4.94;100.00;99894.75;4995912;28;19949;-74
2021/12/27 11:26:11;;;;;;;;;;;;;;;5.11;100.00;99901.91;5003329;28;20520;-74
2021/12/27 11:28:52;;;;;;;;;;;;;;;4.94;100.00;99886.94;4998576;28;19926;-74
2021/12/27 11:31:33;;;;;;;;;;;;;;;4.96;100.00;99897.31;4976478;28;19923;-74
2021/12/27 11:33:59;;;;;;;;;;;;;;;5.14;100.00;99894.88;4977791;28;20394;-75
2021/12/27 11:36:26;;;;;;;;;;;;;;;5.07;100.00;99889.06;5003287;28;19980;-74
2021/12/27 11:38:52;;;;;;;;;;;;;;;4.86;100.00;99883.78;4982984;28;19925;-73
2021/12/27 11:41:32;;;;;;;;;;;;;;;4.97;100.00;99885.97;4976871;28;19918;-73
2021/12/27 11:44:00;;;;;;;;;;;;;;;4.98;100.00;99882.47;4986933;28;19968;-74
2021/12/27 11:46:27;;;;;;;;;;;;;;;5.01;100.00;99884.13;5003013;28;19917;-74
2021/12/27 11:48:54;;;;;;;;;;;;;;;4.89;100.00;99881.09;5008793;28;20536;-75
2021/12/27 11:51:34;;;;;;;;;;;;;;;4.95;100.00;99880.00;4999810;28;19926;-73
2021/12/27 11:54:02;;;;;;;;;;;;;;;4.92;100.00;99880.09;5008443;28;19940;-74
2021/12/27 11:56:44;;;;;;;;;;;;;;;5.01;100.00;99877.13;4996592;28;19922;-74
2021/12/27 11:59:24;;;;;;;;;;;;;;;5.08;100.00;99872.53;5005112;28;19917;-74
2021/12/27 12:01:50;;;;;;;;;;;;;;;5.10;100.00;99866.34;5001458;28;20268;-76
2021/12/27 12:04:36;;;;;;;;;;;;;;;5.19;100.00;99872.09;5008492;28;19940;-75
2021/12/27 12:07:01;;;;;;;;;;;;;;;5.30;100.00;99859.50;5004679;28;19926;-75
2021/12/27 12:09:26;;;;;;;;;;;;;;;5.34;100.00;99855.03;4995227;28;19930;-74
2021/12/27 12:12:08;;;;;;;;;;;;;;;5.45;100.00;99842.41;5001252;28;19917;-74
2021/12/27 12:14:34;;;;;;;;;;;;;;;5.33;100.00;99837.72;5005819;28;19921;-72
2021/12/27 12:17:01;;;;;;;;;;;;;;;5.12;100.00;99832.47;4996718;28;19987;-76
2021/12/27 12:19:42;;;;;;;;;;;;;;;5.19;100.00;99833.91;5004295;28;19925;-75
2021/12/27 12:22:27;;;;;;;;;;;;;;;5.34;100.00;99836.78;4998754;28;20358;-74
2021/12/27 12:25:04;;;;;;;;;;;;;;;5.33;100.00;99835.94;5008614;28;20397;-74
2021/12/27 12:27:30;;;;;;;;;;;;;;;5.31;100.00;99829.09;4993730;28;20327;-74
2021/12/27 12:29:56;;;;;;;;;;;;;;;5.35;100.00;99817.63;4997689;28;19925;-75
2021/12/27 12:32:22;;;;;;;;;;;;;;;5.16;100.00;99821.00;5006826;28;19924;-75
2021/12/27 12:34:47;;;;;;;;;;;;;;;5.50;100.00;99810.94;5000059;28;19925;-74
2021/12/27 12:37:14;;;;;;;;;;;;;;;5.56;100.00;99810.69;4993183;28;19929;-73
2021/12/27 12:39:54;;;;;;;;;;;;;;;5.26;100.00;99814.50;4998850;28;20559;-73
2021/12/27 12:42:23;;;;;;;;;;;;;;;5.15;100.00;99811.50;5006927;28;19929;-72
2021/12/27 12:45:05;;;;;;;;;;;;;;;5.41;100.00;99813.00;5004230;28;20713;-73
2021/12/27 12:47:45;;;;;;;;;;;;;;;5.55;100.00;99808.97;5006306;28;20007;-73
2021/12/27 12:50:26;;;;;;;;;;;;;;;5.48;100.00;99807.56;5002631;28;19924;-73
2021/12/27 12:52:51;;;;;;;;;;;;;;;5.48;100.00;99811.00;4999234;28;19956;-72
2021/12/27 12:55:20;;;;;;;;;;;;;;;5.43;100.00;99805.16;4998741;28;20272;-73